createdAt,value
2022-12-24T00:01:37.490Z,36.70
2022-12-24T00:04:06.658Z,41.20
2022-12-24T00:06:34.948Z,40.40
2022-12-24T00:09:04.194Z,40.70
2022-12-24T00:11:32.466Z,36.60
2022-12-24T00:14:00.726Z,42.20
2022-12-24T00:16:29.161Z,43.50
2022-12-24T00:18:57.435Z,42.70
2022-12-24T00:21:25.882Z,42.60
2022-12-24T00:23:54.006Z,41.40
2022-12-24T00:26:22.304Z,45.90
2022-12-24T00:28:50.843Z,45.40
2022-12-24T00:31:19.615Z,46.40
2022-12-24T00:33:48.585Z,45.90
2022-12-24T00:36:17.424Z,44.20
2022-12-24T00:38:46.290Z,44.20
2022-12-24T00:41:25.472Z,43.80
2022-12-24T00:43:56.311Z,45.10
2022-12-24T00:46:26.905Z,45.20
2022-12-24T00:48:55.212Z,46.30
2022-12-24T00:51:24.601Z,46.00
2022-12-24T00:53:53.512Z,46.20
2022-12-24T00:56:22.377Z,48.10
2022-12-24T00:58:50.721Z,48.10
2022-12-24T01:01:19.645Z,45.50
2022-12-24T01:03:48.933Z,43.40
2022-12-24T01:06:21.568Z,42.50
2022-12-24T01:08:52.473Z,41.70
2022-12-24T01:11:20.667Z,41.90
2022-12-24T01:13:48.874Z,44.90
2022-12-24T01:16:20.695Z,41.90
2022-12-24T01:18:49.062Z,43.10
2022-12-24T01:21:17.423Z,43.50
2022-12-24T01:23:45.612Z,42.60
2022-12-24T01:26:13.858Z,44.60
2022-12-24T01:28:42.668Z,41.20
2022-12-24T01:31:18.182Z,43.20
2022-12-24T01:33:49.948Z,43.10
2022-12-24T01:36:18.111Z,42.60
2022-12-24T01:38:46.275Z,41.20
2022-12-24T01:41:40.950Z,41.00
2022-12-24T01:44:22.602Z,42.10
2022-12-24T01:46:55.118Z,41.50
2022-12-24T01:49:23.735Z,41.40
2022-12-24T01:51:57.354Z,42.20
2022-12-24T01:54:36.078Z,41.30
2022-12-24T01:57:13.639Z,43.00
2022-12-24T01:59:46.378Z,42.90
2022-12-24T02:02:15.373Z,40.10
2022-12-24T02:05:07.663Z,43.50
2022-12-24T02:07:36.467Z,37.90
2022-12-24T02:10:06.363Z,40.40
2022-12-24T02:12:37.991Z,40.60
2022-12-24T02:15:13.607Z,41.70
2022-12-24T02:17:57.828Z,41.60
2022-12-24T02:20:58.009Z,43.20
2022-12-24T02:24:03.843Z,42.20
2022-12-24T02:26:52.827Z,42.40
2022-12-24T02:30:01.617Z,39.40
2022-12-24T02:32:56.882Z,41.80
2022-12-24T02:35:57.486Z,36.90
2022-12-24T02:39:01.479Z,39.00
2022-12-24T02:41:59.833Z,39.00
2022-12-24T02:44:32.045Z,41.50
2022-12-24T02:47:01.245Z,39.90
2022-12-24T02:49:29.389Z,43.40
2022-12-24T02:51:57.623Z,40.30
2022-12-24T02:54:26.087Z,42.00
2022-12-24T02:57:25.578Z,41.90
2022-12-24T03:00:05.796Z,40.20
2022-12-24T03:03:28.554Z,42.70
2022-12-24T03:06:32.676Z,42.40
2022-12-24T03:09:14.204Z,43.20
2022-12-24T03:11:55.608Z,45.80
2022-12-24T03:14:26.189Z,44.60
2022-12-24T03:16:55.285Z,37.60
2022-12-24T03:19:25.782Z,40.20
2022-12-24T03:21:58.447Z,43.80
2022-12-24T03:24:26.684Z,43.20
2022-12-24T03:26:55.447Z,43.60
2022-12-24T03:29:23.791Z,44.50
2022-12-24T03:32:00.138Z,43.50
2022-12-24T03:34:28.309Z,35.20
2022-12-24T03:36:56.743Z,44.40
2022-12-24T03:39:25.045Z,43.30
2022-12-24T03:41:53.107Z,41.10
2022-12-24T03:44:21.179Z,45.30
2022-12-24T03:46:49.419Z,45.60
2022-12-24T03:49:17.560Z,45.50
2022-12-24T03:51:45.757Z,49.00
2022-12-24T03:54:13.934Z,45.30
2022-12-24T03:56:42.081Z,44.00
2022-12-24T03:59:10.370Z,45.70
2022-12-24T04:01:38.797Z,45.10
2022-12-24T04:04:07.151Z,44.30
2022-12-24T04:06:35.341Z,44.90
2022-12-24T04:09:05.212Z,46.80
2022-12-24T04:11:33.512Z,44.40
2022-12-24T04:14:01.660Z,42.80
2022-12-24T04:16:29.842Z,40.20
2022-12-24T04:18:58.205Z,46.50
2022-12-24T04:21:26.301Z,47.20
2022-12-24T04:23:54.484Z,46.80
2022-12-24T04:26:22.603Z,48.90
2022-12-24T04:28:50.829Z,46.00
2022-12-24T04:31:19.143Z,46.00
2022-12-24T04:33:47.624Z,47.10
2022-12-24T04:36:17.439Z,48.90
2022-12-24T04:38:48.505Z,46.20
2022-12-24T04:41:24.755Z,45.40
2022-12-24T04:43:55.260Z,47.40
2022-12-24T04:46:30.605Z,45.60
2022-12-24T04:48:59.924Z,44.40
2022-12-24T04:51:29.049Z,46.00
2022-12-24T04:53:57.636Z,41.20
2022-12-24T04:56:30.803Z,45.00
2022-12-24T04:59:01.018Z,44.00
2022-12-24T05:01:33.204Z,38.10
2022-12-24T05:06:32.037Z,39.50
2022-12-24T05:09:00.315Z,43.20
2022-12-24T05:11:29.100Z,41.00
2022-12-24T05:13:57.445Z,41.70
2022-12-24T05:16:25.796Z,41.20
2022-12-24T05:18:55.698Z,43.00
2022-12-24T05:21:25.181Z,41.90
2022-12-24T05:24:12.159Z,40.90
2022-12-24T05:26:49.695Z,41.70
2022-12-24T05:29:17.931Z,43.00
2022-12-24T05:31:47.052Z,41.60
2022-12-24T05:34:16.917Z,41.80
2022-12-24T05:36:45.621Z,39.60
2022-12-24T05:39:17.998Z,42.50
2022-12-24T05:41:47.659Z,37.00
2022-12-24T05:44:16.925Z,41.60
2022-12-24T05:46:45.753Z,36.00
2022-12-24T05:49:14.231Z,39.30
2022-12-24T05:51:42.588Z,39.20
2022-12-24T05:54:11.012Z,41.40
2022-12-24T05:56:39.224Z,40.20
2022-12-24T05:59:07.362Z,40.30
2022-12-24T06:01:35.703Z,38.40
2022-12-24T06:04:04.426Z,37.10
2022-12-24T06:06:32.841Z,38.10
2022-12-24T06:09:01.169Z,38.30
2022-12-24T06:11:29.810Z,37.20
2022-12-24T06:13:57.975Z,33.40
2022-12-24T06:16:26.699Z,34.50
2022-12-24T06:18:55.092Z,32.80
2022-12-24T06:21:23.508Z,32.20
2022-12-24T06:23:51.865Z,33.40
2022-12-24T06:26:22.997Z,31.80
2022-12-24T06:28:51.973Z,29.70
2022-12-24T06:31:23.136Z,30.70
2022-12-24T06:33:52.883Z,31.00
2022-12-24T06:36:25.166Z,32.90
2022-12-24T06:41:23.841Z,32.10
2022-12-24T06:43:53.603Z,31.30
2022-12-24T06:46:22.589Z,31.50
2022-12-24T06:48:50.840Z,32.00
2022-12-24T06:51:20.452Z,30.80
2022-12-24T06:53:53.315Z,33.30
2022-12-24T06:56:22.111Z,29.50
2022-12-24T06:58:50.415Z,31.90
2022-12-24T07:01:20.808Z,34.40
2022-12-24T07:03:49.402Z,34.30
2022-12-24T07:06:29.512Z,41.80
2022-12-24T07:08:58.164Z,31.20
2022-12-24T07:11:26.808Z,31.80
2022-12-24T07:13:54.954Z,32.80
2022-12-24T07:16:23.199Z,29.30
2022-12-24T07:18:51.520Z,31.10
2022-12-24T07:21:19.639Z,30.30
2022-12-24T07:23:47.773Z,31.40
2022-12-24T07:26:15.977Z,29.80
2022-12-24T07:28:44.148Z,31.00
2022-12-24T07:31:12.431Z,33.50
2022-12-24T07:33:40.639Z,33.10
2022-12-24T07:36:14.615Z,32.80
2022-12-24T07:38:42.792Z,34.50
2022-12-24T07:41:11.450Z,33.20
2022-12-24T07:43:39.828Z,32.00
2022-12-24T07:46:08.476Z,31.40
2022-12-24T07:48:36.691Z,27.10
2022-12-24T07:51:05.422Z,29.40
2022-12-24T07:53:33.749Z,30.80
2022-12-24T07:56:04.253Z,32.40
2022-12-24T07:58:35.807Z,30.70
2022-12-24T08:01:03.952Z,31.50
2022-12-24T08:03:32.207Z,32.30
2022-12-24T08:06:00.740Z,31.90
2022-12-24T08:08:28.990Z,32.30
2022-12-24T08:11:03.260Z,31.30
2022-12-24T08:13:32.870Z,31.80
2022-12-24T08:16:01.063Z,32.30
2022-12-24T08:18:29.247Z,30.30
2022-12-24T08:20:57.469Z,28.10
2022-12-24T08:23:25.672Z,29.40
2022-12-24T08:25:54.151Z,29.60
2022-12-24T08:28:22.629Z,31.30
2022-12-24T08:30:51.480Z,28.50
2022-12-24T08:33:22.289Z,28.70
2022-12-24T08:35:53.009Z,28.80
2022-12-24T08:38:22.916Z,28.80
2022-12-24T08:40:54.813Z,28.90
2022-12-24T08:43:26.127Z,29.40
2022-12-24T08:45:54.636Z,30.80
2022-12-24T08:48:22.788Z,28.80
2022-12-24T08:50:50.851Z,29.40
2022-12-24T08:53:19.037Z,29.70
2022-12-24T08:55:55.396Z,29.30
2022-12-24T08:58:24.430Z,29.10
2022-12-24T09:00:52.695Z,29.90
2022-12-24T09:03:27.311Z,30.80
2022-12-24T09:05:56.136Z,31.10
2022-12-24T09:08:24.344Z,28.50
2022-12-24T09:10:52.464Z,29.70
2022-12-24T09:13:20.711Z,32.80
2022-12-24T09:15:56.021Z,31.70
2022-12-24T09:18:25.790Z,28.30
2022-12-24T09:21:03.649Z,28.80
2022-12-24T09:23:33.883Z,31.40
2022-12-24T09:26:07.419Z,30.90
2022-12-24T09:28:36.101Z,30.30
2022-12-24T09:31:05.586Z,30.70
2022-12-24T09:33:37.587Z,29.90
2022-12-24T09:36:06.976Z,31.40
2022-12-24T09:38:36.594Z,34.20
2022-12-24T09:41:22.855Z,33.90
2022-12-24T09:44:19.775Z,31.70
2022-12-24T09:46:51.217Z,32.80
2022-12-24T09:49:37.862Z,29.50
2022-12-24T09:52:12.613Z,31.90
2022-12-24T09:54:49.775Z,33.00
2022-12-24T09:57:32.388Z,32.80
2022-12-24T10:00:00.603Z,32.00
2022-12-24T10:02:29.022Z,33.30
2022-12-24T10:04:57.541Z,33.30
2022-12-24T10:07:46.792Z,32.50
2022-12-24T10:10:38.166Z,28.80
2022-12-24T10:13:32.030Z,31.30
2022-12-24T10:16:36.074Z,30.40
2022-12-24T10:19:10.296Z,30.90
2022-12-24T10:21:54.748Z,32.80
2022-12-24T10:24:57.145Z,28.40
2022-12-24T10:27:32.502Z,30.50
2022-12-24T10:30:13.247Z,37.50
2022-12-24T10:32:47.124Z,33.20
2022-12-24T10:35:15.243Z,33.90
2022-12-24T10:37:47.483Z,33.30
2022-12-24T10:42:56.610Z,31.50
2022-12-24T10:45:40.436Z,28.40
2022-12-24T10:48:17.158Z,35.00
2022-12-24T10:51:13.476Z,29.50
2022-12-24T10:54:26.098Z,31.80
2022-12-24T10:57:01.296Z,29.20
2022-12-24T10:59:34.041Z,33.40
2022-12-24T11:02:02.867Z,30.70
2022-12-24T11:04:33.511Z,29.60
2022-12-24T11:07:07.303Z,32.60
2022-12-24T11:09:58.449Z,32.50
2022-12-24T11:13:00.513Z,33.20
2022-12-24T11:15:37.817Z,32.30
2022-12-24T11:18:16.090Z,29.40
2022-12-24T11:20:51.163Z,32.80
2022-12-24T11:23:20.353Z,33.60
2022-12-24T11:25:52.136Z,33.90
2022-12-24T11:28:31.983Z,35.50
2022-12-24T11:31:18.598Z,36.90
2022-12-24T11:33:50.089Z,33.80
2022-12-24T11:36:23.331Z,36.30
2022-12-24T11:38:57.818Z,37.70
2022-12-24T11:41:26.804Z,36.20
2022-12-24T11:44:07.964Z,37.30
2022-12-24T11:46:43.523Z,36.90
2022-12-24T11:49:11.700Z,31.60
2022-12-24T11:51:48.675Z,35.50
2022-12-24T11:54:24.277Z,33.80
2022-12-24T11:56:58.790Z,34.40
2022-12-24T11:59:38.088Z,34.20
2022-12-24T12:02:33.507Z,33.40
2022-12-24T12:05:19.006Z,32.90
2022-12-24T12:07:52.722Z,37.70
2022-12-24T12:10:36.479Z,33.80
2022-12-24T12:13:15.938Z,35.20
2022-12-24T12:16:02.781Z,31.70
2022-12-24T12:18:40.120Z,33.70
2022-12-24T12:21:21.319Z,34.20
2022-12-24T12:24:00.055Z,35.20
2022-12-24T12:26:33.289Z,38.10
2022-12-24T12:29:15.642Z,35.30
2022-12-24T12:32:15.301Z,34.10
2022-12-24T12:35:26.364Z,34.60
2022-12-24T12:38:20.559Z,29.00
2022-12-24T12:41:22.466Z,33.00
2022-12-24T12:44:05.450Z,41.10
2022-12-24T12:47:19.112Z,41.40
2022-12-24T12:50:36.456Z,41.60
2022-12-24T12:53:38.744Z,38.40
2022-12-24T12:56:33.401Z,39.20
2022-12-24T12:59:31.247Z,40.10
2022-12-24T13:02:14.678Z,39.50
2022-12-24T13:05:19.476Z,41.90
2022-12-24T13:08:15.315Z,37.80
2022-12-24T13:11:05.269Z,38.20
2022-12-24T13:13:52.391Z,41.80
2022-12-24T13:17:20.764Z,41.90
2022-12-24T13:20:19.238Z,40.40
2022-12-24T13:23:21.670Z,41.00
2022-12-24T13:25:56.704Z,37.80
2022-12-24T13:28:24.851Z,29.30
2022-12-24T13:30:53.949Z,36.70
2022-12-24T13:33:34.189Z,38.80
2022-12-24T13:36:08.979Z,39.50
2022-12-24T13:38:46.059Z,38.70
2022-12-24T13:41:52.505Z,28.80
2022-12-24T13:44:23.753Z,33.60
2022-12-24T13:47:13.661Z,34.50
2022-12-24T13:49:53.519Z,39.20
2022-12-24T13:52:26.498Z,38.90
2022-12-24T13:54:54.546Z,37.10
2022-12-24T13:57:48.010Z,36.00
2022-12-24T14:00:21.874Z,37.20
2022-12-24T14:03:13.557Z,38.50
2022-12-24T14:05:51.130Z,38.20
2022-12-24T14:08:25.685Z,38.70
2022-12-24T14:11:05.973Z,37.60
2022-12-24T14:13:39.943Z,39.70
2022-12-24T14:16:20.680Z,40.50
2022-12-24T14:19:13.162Z,35.70
2022-12-24T14:22:25.207Z,39.20
2022-12-24T14:25:19.876Z,42.50
2022-12-24T14:28:13.252Z,42.50
2022-12-24T14:30:41.527Z,42.60
2022-12-24T14:33:29.997Z,44.20
2022-12-24T14:35:59.512Z,43.30
2022-12-24T14:38:28.694Z,43.30
2022-12-24T14:41:39.785Z,42.30
2022-12-24T14:44:36.550Z,40.80
2022-12-24T14:47:36.880Z,40.70
2022-12-24T14:50:51.790Z,38.30
2022-12-24T14:53:38.336Z,41.50
2022-12-24T14:56:16.312Z,41.30
2022-12-24T14:58:46.631Z,38.10
2022-12-24T15:01:30.543Z,39.90
2022-12-24T15:04:15.896Z,35.70
2022-12-24T15:06:53.256Z,39.80
2022-12-24T15:09:29.506Z,38.10
2022-12-24T15:12:03.415Z,40.30
2022-12-24T15:14:42.345Z,40.60
2022-12-24T15:17:13.284Z,37.10
2022-12-24T15:19:47.273Z,39.30
2022-12-24T15:22:31.415Z,39.80
2022-12-24T15:24:59.609Z,45.00
2022-12-24T15:27:33.462Z,45.00
2022-12-24T15:30:15.865Z,56.10
2022-12-24T15:32:44.141Z,50.90
2022-12-24T15:35:53.925Z,47.10
2022-12-24T15:38:51.875Z,55.10
2022-12-24T15:41:26.632Z,49.10
2022-12-24T15:44:01.376Z,48.60
2022-12-24T15:46:32.023Z,45.80
2022-12-24T15:49:02.666Z,42.80
2022-12-24T15:51:37.203Z,48.20
2022-12-24T15:54:20.277Z,52.10
2022-12-24T15:56:48.800Z,50.80
2022-12-24T15:59:17.955Z,48.50
2022-12-24T16:01:48.242Z,50.30
2022-12-24T16:04:28.645Z,45.30
2022-12-24T16:06:58.675Z,45.90
2022-12-24T16:09:48.193Z,40.20
2022-12-24T16:12:23.769Z,43.90
2022-12-24T16:14:59.716Z,42.60
2022-12-24T16:17:33.527Z,44.00
2022-12-24T16:20:17.060Z,49.40
2022-12-24T16:22:50.398Z,37.10
2022-12-24T16:25:18.456Z,47.40
2022-12-24T16:27:46.803Z,49.60
2022-12-24T16:30:15.129Z,48.30
2022-12-24T16:32:43.245Z,46.70
2022-12-24T16:35:33.471Z,45.70
2022-12-24T16:38:01.555Z,49.20
2022-12-24T16:40:29.885Z,46.80
2022-12-24T16:43:16.609Z,50.70
2022-12-24T16:45:46.845Z,55.60
2022-12-24T16:48:25.289Z,49.00
2022-12-24T16:50:54.229Z,49.40
2022-12-24T16:53:24.171Z,54.40
2022-12-24T16:55:53.429Z,63.40
2022-12-24T16:58:21.745Z,53.30
2022-12-24T17:00:50.087Z,49.70
2022-12-24T17:03:18.426Z,58.00
2022-12-24T17:05:46.970Z,58.50
2022-12-24T17:08:15.123Z,54.50
2022-12-24T17:10:51.881Z,49.60
2022-12-24T17:13:20.173Z,51.10
2022-12-24T17:15:48.386Z,51.60
2022-12-24T17:18:17.668Z,50.80
2022-12-24T17:20:45.833Z,51.20
2022-12-24T17:23:13.996Z,52.80
2022-12-24T17:25:42.242Z,50.70
2022-12-24T17:28:10.340Z,51.40
2022-12-24T17:30:40.945Z,50.20
2022-12-24T17:33:14.374Z,51.00
2022-12-24T17:35:44.721Z,55.40
2022-12-24T17:38:12.992Z,51.30
2022-12-24T17:40:41.136Z,49.50
2022-12-24T17:43:09.311Z,63.70
2022-12-24T17:45:42.251Z,49.90
2022-12-24T17:48:10.416Z,46.30
2022-12-24T17:50:40.271Z,51.50
2022-12-24T17:53:08.494Z,51.80
2022-12-24T17:55:42.151Z,46.80
2022-12-24T17:58:11.974Z,46.70
2022-12-24T18:00:40.114Z,48.50
2022-12-24T18:03:13.804Z,46.10
2022-12-24T18:05:42.212Z,50.10
2022-12-24T18:08:10.507Z,49.90
2022-12-24T18:10:38.643Z,48.70
2022-12-24T18:13:11.366Z,48.70
2022-12-24T18:15:42.229Z,48.50
2022-12-24T18:18:10.409Z,48.20
2022-12-24T18:20:44.412Z,46.20
2022-12-24T18:23:14.983Z,45.30
2022-12-24T18:25:43.157Z,47.10
2022-12-24T18:28:11.369Z,42.40
2022-12-24T18:30:39.594Z,43.20
2022-12-24T18:33:07.830Z,45.80
2022-12-24T18:35:36.020Z,46.00
2022-12-24T18:38:04.190Z,45.80
2022-12-24T18:40:32.376Z,54.20
2022-12-24T18:43:00.415Z,51.20
2022-12-24T18:45:28.558Z,55.80
2022-12-24T18:47:56.749Z,47.60
2022-12-24T18:50:24.953Z,47.20
2022-12-24T18:52:53.161Z,44.30
2022-12-24T18:55:21.346Z,41.80
2022-12-24T18:57:50.512Z,40.00
2022-12-24T19:00:19.316Z,38.80
2022-12-24T19:02:48.473Z,39.50
2022-12-24T19:05:18.506Z,38.50
2022-12-24T19:07:46.764Z,35.30
2022-12-24T19:10:14.954Z,34.30
2022-12-24T19:12:43.046Z,33.60
2022-12-24T19:15:11.416Z,33.10
2022-12-24T19:17:39.553Z,43.00
2022-12-24T19:20:09.063Z,50.90
2022-12-24T19:22:37.348Z,37.30
2022-12-24T19:25:06.199Z,39.40
2022-12-24T19:27:34.438Z,26.00
2022-12-24T19:30:04.429Z,29.00
2022-12-24T19:32:32.745Z,30.30
2022-12-24T19:35:00.924Z,27.70
2022-12-24T19:37:30.091Z,26.50
2022-12-24T19:39:58.206Z,30.70
2022-12-24T19:42:26.402Z,24.10
2022-12-24T19:44:54.516Z,19.70
2022-12-24T19:47:22.777Z,19.00
2022-12-24T19:49:50.978Z,12.60
2022-12-24T19:52:19.138Z,13.90
2022-12-24T19:54:47.245Z,11.80
2022-12-24T19:57:15.526Z,10.80
2022-12-24T19:59:43.769Z,12.30
2022-12-24T20:02:12.202Z,11.30
2022-12-24T20:04:40.675Z,7.80
2022-12-24T20:07:08.904Z,7.40
2022-12-24T20:09:39.052Z,6.90
2022-12-24T20:12:07.419Z,6.40
2022-12-24T20:14:35.565Z,6.50
2022-12-24T20:17:03.847Z,6.20
2022-12-24T20:19:32.090Z,7.40
2022-12-24T20:22:00.310Z,6.00
2022-12-24T20:24:28.474Z,6.10
2022-12-24T20:26:56.591Z,6.60
2022-12-24T20:29:24.892Z,5.50
2022-12-24T20:31:53.186Z,6.00
2022-12-24T20:34:21.381Z,6.90
2022-12-24T20:36:49.552Z,7.20
2022-12-24T20:39:17.671Z,4.60
2022-12-24T20:41:45.927Z,5.90
2022-12-24T20:44:14.082Z,7.30
2022-12-24T20:46:42.360Z,6.40
2022-12-24T20:49:12.770Z,8.00
2022-12-24T20:51:40.867Z,7.00
2022-12-24T20:54:11.064Z,7.00
2022-12-24T20:56:39.389Z,6.90
2022-12-24T20:59:08.215Z,7.00
2022-12-24T21:01:38.977Z,7.10
2022-12-24T21:04:09.117Z,7.10
2022-12-24T21:06:38.932Z,5.90
2022-12-24T21:09:07.284Z,6.60
2022-12-24T21:11:50.885Z,6.80
2022-12-24T21:14:23.363Z,7.10
2022-12-24T21:19:24.791Z,6.90
2022-12-24T21:21:53.454Z,7.20
2022-12-24T21:24:21.719Z,7.20
2022-12-24T21:26:49.980Z,7.10
2022-12-24T21:29:18.120Z,6.90
2022-12-24T21:31:47.710Z,6.90
2022-12-24T21:34:15.912Z,6.30
2022-12-24T21:36:46.095Z,7.30
2022-12-24T21:39:14.684Z,6.40
2022-12-24T21:41:43.127Z,6.20
2022-12-24T21:44:11.231Z,7.00
2022-12-24T21:46:39.378Z,6.00
2022-12-24T21:49:29.226Z,6.50
2022-12-24T21:51:59.106Z,6.70
2022-12-24T21:54:28.605Z,6.10
2022-12-24T21:57:22.399Z,6.90
2022-12-24T21:59:56.605Z,6.30
2022-12-24T22:02:28.936Z,6.20
2022-12-24T22:04:57.479Z,6.20
2022-12-24T22:07:46.908Z,6.80
2022-12-24T22:10:33.637Z,6.70
2022-12-24T22:13:07.469Z,6.40
2022-12-24T22:15:49.229Z,6.20
2022-12-24T22:18:20.878Z,7.00
2022-12-24T22:20:50.008Z,7.40
2022-12-24T22:23:19.556Z,7.10
2022-12-24T22:25:47.993Z,6.60
2022-12-24T22:28:16.192Z,7.30
2022-12-24T22:30:44.403Z,6.10
2022-12-24T22:33:12.518Z,7.00
2022-12-24T22:35:41.458Z,8.20
2022-12-24T22:38:10.702Z,6.40
2022-12-24T22:40:40.484Z,6.70
2022-12-24T22:43:08.997Z,6.00
2022-12-24T22:45:40.202Z,7.20
2022-12-24T22:48:08.425Z,6.60
2022-12-24T22:50:41.023Z,6.70
2022-12-24T22:53:09.181Z,6.30
2022-12-24T22:55:37.922Z,6.60
2022-12-24T22:58:06.078Z,6.10
2022-12-24T23:00:43.445Z,6.50
2022-12-24T23:03:12.894Z,6.20
2022-12-24T23:05:41.181Z,5.50
2022-12-24T23:08:12.029Z,5.80
2022-12-24T23:10:41.046Z,6.60
2022-12-24T23:13:31.837Z,7.30
2022-12-24T23:16:07.842Z,6.60
2022-12-24T23:18:36.077Z,5.70
2022-12-24T23:21:06.542Z,6.50
2022-12-24T23:23:37.035Z,7.00
2022-12-24T23:26:09.065Z,6.50
2022-12-24T23:28:38.410Z,6.20
2022-12-24T23:31:07.795Z,6.40
2022-12-24T23:33:36.923Z,7.20
2022-12-24T23:36:05.751Z,6.10
2022-12-24T23:38:34.018Z,6.00
2022-12-24T23:41:06.656Z,6.60
2022-12-24T23:43:36.291Z,6.20
2022-12-24T23:46:04.877Z,7.40
2022-12-24T23:48:33.090Z,6.50
2022-12-24T23:51:14.550Z,6.50
2022-12-24T23:53:43.780Z,6.20
2022-12-24T23:56:12.968Z,7.00
2022-12-24T23:58:42.595Z,6.40
